LOT3HB EPWA-EPKK
Flight info
| Callsign | LOT3HB |
|---|---|
| Flight time | 0h 47m |
| Altitude | 26000 |
| Route | EVINA DCT KUKAM |
| Aircraft | E190/M-SDE3GILORVW/S |
Departure
| Time | 2026-05-05 10:17 |
|---|---|
| Airport | Warsaw Chopin Airport (EPWA) |
Arrival
| Time | 2026-05-05 11:04 |
|---|---|
| Airport | Kraków John Paul II International Airport (EPKK) |
| Time | Latitude | Longitude | Altitude | Speed | Heading |
|---|---|---|---|---|---|
| 2026-05-05 09:56 | 52.17318 | 20.96596 | 364 ft | 0 kts | 242° |
| 2026-05-05 09:57 | 52.17226 | 20.96677 | 364 ft | 0 kts | 242° |
| 2026-05-05 10:12 | 52.17225 | 20.96676 | 364 ft | 0 kts | 242° |
| 2026-05-05 10:13 | 52.17215 | 20.96641 | 364 ft | 5 kts | 243° |
| 2026-05-05 10:13 | 52.17171 | 20.96596 | 364 ft | 10 kts | 169° |
| 2026-05-05 10:13 | 52.17089 | 20.96663 | 364 ft | 16 kts | 152° |
| 2026-05-05 10:13 | 52.16974 | 20.96761 | 364 ft | 20 kts | 152° |
| 2026-05-05 10:14 | 52.16847 | 20.96873 | 364 ft | 20 kts | 150° |
| 2026-05-05 10:14 | 52.16742 | 20.96967 | 364 ft | 13 kts | 158° |
| 2026-05-05 10:14 | 52.16665 | 20.97053 | 364 ft | 14 kts | 126° |
| 2026-05-05 10:14 | 52.16621 | 20.97197 | 364 ft | 14 kts | 118° |
| 2026-05-05 10:15 | 52.16579 | 20.97349 | 364 ft | 15 kts | 115° |
| 2026-05-05 10:15 | 52.16532 | 20.97515 | 364 ft | 16 kts | 116° |
| 2026-05-05 10:15 | 52.16481 | 20.97696 | 364 ft | 18 kts | 114° |
| 2026-05-05 10:15 | 52.16456 | 20.97780 | 364 ft | 4 kts | 127° |
| 2026-05-05 10:16 | 52.16408 | 20.97799 | 364 ft | 10 kts | 203° |
| 2026-05-05 10:16 | 52.16329 | 20.97741 | 364 ft | 13 kts | 201° |
| 2026-05-05 10:16 | 52.16304 | 20.97674 | 364 ft | 4 kts | 291° |
| 2026-05-05 10:16 | 52.16342 | 20.97531 | 364 ft | 48 kts | 293° |
| 2026-05-05 10:17 | 52.16618 | 20.96558 | 365 ft | 137 kts | 295° |
| 2026-05-05 10:17 | 52.17103 | 20.94864 | 637 ft | 182 kts | 294° |
| 2026-05-05 10:17 | 52.17651 | 20.92944 | 1533 ft | 194 kts | 292° |
| 2026-05-05 10:17 | 52.18076 | 20.91002 | 2489 ft | 191 kts | 273° |
| 2026-05-05 10:18 | 52.17828 | 20.88821 | 3146 ft | 204 kts | 250° |
| 2026-05-05 10:18 | 52.17431 | 20.86473 | 3626 ft | 233 kts | 253° |
| 2026-05-05 10:18 | 52.17081 | 20.83700 | 4093 ft | 264 kts | 256° |
| 2026-05-05 10:18 | 52.16757 | 20.80755 | 5116 ft | 270 kts | 258° |
| 2026-05-05 10:19 | 52.16448 | 20.77834 | 5869 ft | 266 kts | 258° |
| 2026-05-05 10:19 | 52.16116 | 20.74835 | 5938 ft | 267 kts | 258° |
| 2026-05-05 10:19 | 52.15689 | 20.71926 | 5956 ft | 264 kts | 242° |
| 2026-05-05 10:19 | 52.14518 | 20.69692 | 5994 ft | 262 kts | 219° |
| 2026-05-05 10:20 | 52.13111 | 20.67845 | 5972 ft | 262 kts | 218° |
| 2026-05-05 10:20 | 52.11675 | 20.65996 | 5970 ft | 261 kts | 218° |
| 2026-05-05 10:20 | 52.10257 | 20.64186 | 5967 ft | 261 kts | 218° |
| 2026-05-05 10:20 | 52.08768 | 20.62297 | 6354 ft | 281 kts | 218° |
| 2026-05-05 10:21 | 52.07184 | 20.60502 | 7362 ft | 280 kts | 203° |
| 2026-05-05 10:21 | 52.05309 | 20.60056 | 8532 ft | 276 kts | 184° |
| 2026-05-05 10:21 | 52.03414 | 20.59862 | 9636 ft | 272 kts | 188° |
| 2026-05-05 10:21 | 52.01571 | 20.59503 | 10582 ft | 275 kts | 190° |
| 2026-05-05 10:22 | 51.99661 | 20.59048 | 11326 ft | 285 kts | 191° |
| 2026-05-05 10:22 | 51.97650 | 20.58526 | 11985 ft | 300 kts | 192° |
| 2026-05-05 10:22 | 51.95574 | 20.57968 | 12707 ft | 311 kts | 192° |
| 2026-05-05 10:22 | 51.93431 | 20.57382 | 13561 ft | 318 kts | 192° |
| 2026-05-05 10:23 | 51.91231 | 20.56777 | 14512 ft | 322 kts | 192° |
| 2026-05-05 10:23 | 51.89010 | 20.56164 | 15474 ft | 325 kts | 192° |
| 2026-05-05 10:23 | 51.86797 | 20.55553 | 16375 ft | 328 kts | 192° |
| 2026-05-05 10:23 | 51.84509 | 20.54922 | 17231 ft | 333 kts | 192° |
| 2026-05-05 10:24 | 51.82208 | 20.54288 | 18039 ft | 338 kts | 192° |
| 2026-05-05 10:24 | 51.79878 | 20.53647 | 18836 ft | 343 kts | 192° |
| 2026-05-05 10:24 | 51.77519 | 20.52998 | 19623 ft | 345 kts | 192° |
| 2026-05-05 10:24 | 51.75172 | 20.52354 | 19840 ft | 348 kts | 192° |
| 2026-05-05 10:25 | 51.72691 | 20.51672 | 19885 ft | 371 kts | 192° |
| 2026-05-05 10:25 | 51.70118 | 20.50968 | 19879 ft | 375 kts | 192° |
| 2026-05-05 10:25 | 51.67533 | 20.50261 | 19873 ft | 375 kts | 192° |
| 2026-05-05 10:25 | 51.64953 | 20.49556 | 19874 ft | 375 kts | 192° |
| 2026-05-05 10:26 | 51.62360 | 20.48848 | 19873 ft | 375 kts | 192° |
| 2026-05-05 10:26 | 51.59815 | 20.48154 | 19877 ft | 375 kts | 192° |
| 2026-05-05 10:26 | 51.57222 | 20.47447 | 19877 ft | 375 kts | 192° |
| 2026-05-05 10:26 | 51.54643 | 20.46745 | 19879 ft | 375 kts | 191° |
| 2026-05-05 10:27 | 51.52093 | 20.46052 | 19878 ft | 375 kts | 191° |
| 2026-05-05 10:27 | 51.49524 | 20.45354 | 19878 ft | 376 kts | 191° |
| 2026-05-05 10:27 | 51.46921 | 20.44649 | 19882 ft | 375 kts | 192° |
| 2026-05-05 10:27 | 51.44358 | 20.43954 | 19882 ft | 375 kts | 191° |
| 2026-05-05 10:28 | 51.41763 | 20.43252 | 19884 ft | 375 kts | 192° |
| 2026-05-05 10:28 | 51.39216 | 20.42563 | 19881 ft | 375 kts | 192° |
| 2026-05-05 10:28 | 51.36621 | 20.41863 | 19883 ft | 375 kts | 192° |
| 2026-05-05 10:28 | 51.34056 | 20.41171 | 19883 ft | 375 kts | 192° |
| 2026-05-05 10:29 | 51.31492 | 20.40480 | 19884 ft | 376 kts | 191° |
| 2026-05-05 10:29 | 51.28933 | 20.39792 | 19884 ft | 375 kts | 191° |
| 2026-05-05 10:29 | 51.26356 | 20.39099 | 19886 ft | 375 kts | 191° |
| 2026-05-05 10:29 | 51.23803 | 20.38414 | 19884 ft | 375 kts | 191° |
| 2026-05-05 10:30 | 51.21217 | 20.37720 | 19887 ft | 376 kts | 191° |
| 2026-05-05 10:30 | 51.18654 | 20.37034 | 19887 ft | 375 kts | 191° |
| 2026-05-05 10:30 | 51.16118 | 20.36356 | 19878 ft | 364 kts | 191° |
| 2026-05-05 10:30 | 51.13646 | 20.35694 | 19884 ft | 363 kts | 191° |
| 2026-05-05 10:31 | 51.11148 | 20.35027 | 19886 ft | 363 kts | 191° |
| 2026-05-05 10:31 | 51.08617 | 20.34352 | 19824 ft | 365 kts | 190° |
| 2026-05-05 10:31 | 51.06119 | 20.33687 | 19446 ft | 364 kts | 191° |
| 2026-05-05 10:31 | 51.03612 | 20.33022 | 19193 ft | 357 kts | 191° |
| 2026-05-05 10:32 | 51.01185 | 20.32391 | 19254 ft | 358 kts | 190° |
| 2026-05-05 10:32 | 50.98695 | 20.31743 | 19253 ft | 359 kts | 191° |
| 2026-05-05 10:32 | 50.96227 | 20.31102 | 19253 ft | 360 kts | 190° |
| 2026-05-05 10:32 | 50.93756 | 20.30459 | 19254 ft | 360 kts | 190° |
| 2026-05-05 10:33 | 50.91290 | 20.29830 | 19251 ft | 359 kts | 190° |
| 2026-05-05 10:33 | 50.88851 | 20.29217 | 19252 ft | 359 kts | 190° |
| 2026-05-05 10:33 | 50.86353 | 20.28589 | 19255 ft | 358 kts | 190° |
| 2026-05-05 10:33 | 50.83895 | 20.27965 | 19256 ft | 359 kts | 190° |
| 2026-05-05 10:34 | 50.81387 | 20.27326 | 19256 ft | 359 kts | 190° |
| 2026-05-05 10:34 | 50.78929 | 20.26714 | 19255 ft | 358 kts | 190° |
| 2026-05-05 10:34 | 50.76473 | 20.26088 | 18775 ft | 365 kts | 191° |
| 2026-05-05 10:34 | 50.73987 | 20.25394 | 17547 ft | 364 kts | 191° |
| 2026-05-05 10:35 | 50.71537 | 20.24732 | 16411 ft | 359 kts | 191° |
| 2026-05-05 10:35 | 50.69096 | 20.24081 | 15291 ft | 355 kts | 191° |
| 2026-05-05 10:35 | 50.66712 | 20.23448 | 14206 ft | 351 kts | 191° |
| 2026-05-05 10:35 | 50.64331 | 20.22834 | 13125 ft | 347 kts | 191° |
| 2026-05-05 10:36 | 50.61970 | 20.22275 | 12055 ft | 342 kts | 189° |
| 2026-05-05 10:36 | 50.59692 | 20.21789 | 10954 ft | 325 kts | 189° |
| 2026-05-05 10:36 | 50.57535 | 20.21378 | 10624 ft | 288 kts | 188° |
| 2026-05-05 10:36 | 50.55584 | 20.21047 | 10600 ft | 289 kts | 188° |
| 2026-05-05 10:37 | 50.53609 | 20.20743 | 10191 ft | 278 kts | 187° |
| 2026-05-05 10:37 | 50.51724 | 20.20486 | 9779 ft | 269 kts | 187° |
| 2026-05-05 10:37 | 50.49855 | 20.20260 | 9487 ft | 267 kts | 186° |
| 2026-05-05 10:37 | 50.48006 | 20.20062 | 9616 ft | 272 kts | 185° |
| 2026-05-05 10:38 | 50.46097 | 20.20217 | 9566 ft | 273 kts | 178° |
| 2026-05-05 10:38 | 50.44214 | 20.20404 | 9571 ft | 273 kts | 179° |
| 2026-05-05 10:38 | 50.42318 | 20.20537 | 9468 ft | 273 kts | 180° |
| 2026-05-05 10:38 | 50.40443 | 20.20642 | 9268 ft | 270 kts | 180° |
| 2026-05-05 10:39 | 50.38562 | 20.20737 | 9321 ft | 269 kts | 181° |
| 2026-05-05 10:39 | 50.36690 | 20.20812 | 9148 ft | 273 kts | 180° |
| 2026-05-05 10:39 | 50.34787 | 20.20892 | 8795 ft | 271 kts | 180° |
| 2026-05-05 10:39 | 50.32921 | 20.20972 | 8449 ft | 267 kts | 180° |
| 2026-05-05 10:40 | 50.31060 | 20.21052 | 8102 ft | 264 kts | 180° |
| 2026-05-05 10:40 | 50.29219 | 20.21132 | 7757 ft | 263 kts | 180° |
| 2026-05-05 10:40 | 50.27390 | 20.21211 | 7414 ft | 262 kts | 180° |
| 2026-05-05 10:40 | 50.25586 | 20.21288 | 7077 ft | 261 kts | 179° |
| 2026-05-05 10:41 | 50.23762 | 20.21367 | 6732 ft | 260 kts | 179° |
| 2026-05-05 10:41 | 50.21962 | 20.21445 | 6391 ft | 260 kts | 179° |
| 2026-05-05 10:41 | 50.20168 | 20.21523 | 6019 ft | 252 kts | 179° |
| 2026-05-05 10:41 | 50.18496 | 20.21595 | 5708 ft | 229 kts | 179° |
| 2026-05-05 10:42 | 50.15440 | 20.21718 | 4564 ft | 218 kts | 182° |
| 2026-05-05 10:42 | 50.14091 | 20.20887 | 4078 ft | 210 kts | 225° |
| 2026-05-05 10:42 | 50.13480 | 20.18919 | 4024 ft | 195 kts | 251° |
| 2026-05-05 10:43 | 50.13155 | 20.16970 | 3980 ft | 184 kts | 252° |
| 2026-05-05 10:43 | 50.12854 | 20.15028 | 3991 ft | 184 kts | 253° |
| 2026-05-05 10:43 | 50.12562 | 20.13051 | 3997 ft | 186 kts | 253° |
| 2026-05-05 10:43 | 50.12277 | 20.11062 | 3998 ft | 188 kts | 254° |
| 2026-05-05 10:44 | 50.11998 | 20.09075 | 3996 ft | 187 kts | 254° |
| 2026-05-05 10:44 | 50.11725 | 20.07108 | 3994 ft | 187 kts | 254° |
| 2026-05-05 10:44 | 50.11453 | 20.05135 | 4004 ft | 182 kts | 254° |
| 2026-05-05 10:44 | 50.11203 | 20.03304 | 3969 ft | 166 kts | 254° |
| 2026-05-05 10:45 | 50.10962 | 20.01545 | 3781 ft | 169 kts | 254° |
| 2026-05-05 10:45 | 50.10714 | 19.99745 | 3418 ft | 172 kts | 254° |
| 2026-05-05 10:45 | 50.10463 | 19.97917 | 3139 ft | 170 kts | 255° |
| 2026-05-05 10:45 | 50.10231 | 19.96223 | 2954 ft | 152 kts | 254° |
| 2026-05-05 10:46 | 50.10018 | 19.94662 | 2665 ft | 140 kts | 253° |
| 2026-05-05 10:46 | 50.09829 | 19.93243 | 2436 ft | 127 kts | 255° |
| 2026-05-05 10:46 | 50.09664 | 19.91948 | 2187 ft | 120 kts | 253° |
| 2026-05-05 10:46 | 50.09485 | 19.90653 | 1993 ft | 123 kts | 250° |
| 2026-05-05 10:47 | 50.09287 | 19.89382 | 1958 ft | 128 kts | 249° |
| 2026-05-05 10:47 | 50.09096 | 19.88125 | 1984 ft | 120 kts | 253° |
| 2026-05-05 10:47 | 50.08913 | 19.86753 | 1864 ft | 131 kts | 252° |
| 2026-05-05 10:47 | 50.08720 | 19.85356 | 1659 ft | 131 kts | 252° |
| 2026-05-05 10:48 | 50.08558 | 19.84027 | 1458 ft | 125 kts | 254° |
| 2026-05-05 10:48 | 50.08356 | 19.82701 | 1198 ft | 133 kts | 253° |
| 2026-05-05 10:48 | 50.08171 | 19.81359 | 989 ft | 123 kts | 253° |
| 2026-05-05 10:48 | 50.07964 | 19.79991 | 1210 ft | 133 kts | 252° |
| 2026-05-05 10:49 | 50.07718 | 19.78595 | 1738 ft | 140 kts | 248° |
| 2026-05-05 10:49 | 50.07390 | 19.77203 | 2425 ft | 132 kts | 237° |
| 2026-05-05 10:49 | 50.06930 | 19.75959 | 2683 ft | 161 kts | 245° |
| 2026-05-05 10:49 | 50.06707 | 19.74040 | 2876 ft | 192 kts | 258° |
| 2026-05-05 10:50 | 50.06504 | 19.71864 | 3182 ft | 199 kts | 257° |
| 2026-05-05 10:50 | 50.06247 | 19.69702 | 3431 ft | 222 kts | 253° |
| 2026-05-05 10:50 | 50.05887 | 19.67259 | 3871 ft | 244 kts | 253° |
| 2026-05-05 10:50 | 50.05563 | 19.64609 | 3969 ft | 250 kts | 264° |
| 2026-05-05 10:51 | 50.05986 | 19.61984 | 3975 ft | 258 kts | 299° |
| 2026-05-05 10:51 | 50.07359 | 19.60203 | 4295 ft | 265 kts | 336° |
| 2026-05-05 10:51 | 50.09184 | 19.59925 | 4735 ft | 272 kts | 11° |
| 2026-05-05 10:51 | 50.10889 | 19.61222 | 4951 ft | 275 kts | 44° |
| 2026-05-05 10:52 | 50.12078 | 19.63508 | 4991 ft | 272 kts | 56° |
| 2026-05-05 10:52 | 50.13177 | 19.65942 | 4990 ft | 272 kts | 56° |
| 2026-05-05 10:52 | 50.14276 | 19.68371 | 4994 ft | 271 kts | 56° |
| 2026-05-05 10:52 | 50.15368 | 19.70755 | 4992 ft | 270 kts | 56° |
| 2026-05-05 10:53 | 50.16463 | 19.73155 | 4988 ft | 270 kts | 56° |
| 2026-05-05 10:53 | 50.17506 | 19.75571 | 4978 ft | 269 kts | 66° |
| 2026-05-05 10:53 | 50.17946 | 19.78365 | 4998 ft | 263 kts | 85° |
| 2026-05-05 10:53 | 50.18152 | 19.81175 | 5001 ft | 264 kts | 86° |
| 2026-05-05 10:54 | 50.18359 | 19.84022 | 5002 ft | 263 kts | 86° |
| 2026-05-05 10:54 | 50.18567 | 19.86892 | 4999 ft | 263 kts | 86° |
| 2026-05-05 10:54 | 50.18767 | 19.89731 | 4996 ft | 263 kts | 86° |
| 2026-05-05 10:54 | 50.18972 | 19.92649 | 5000 ft | 263 kts | 86° |
| 2026-05-05 10:55 | 50.19167 | 19.95466 | 4930 ft | 265 kts | 86° |
| 2026-05-05 10:55 | 50.19359 | 19.98299 | 4667 ft | 263 kts | 86° |
| 2026-05-05 10:55 | 50.19551 | 20.01164 | 4409 ft | 261 kts | 86° |
| 2026-05-05 10:55 | 50.19738 | 20.03931 | 4160 ft | 259 kts | 86° |
| 2026-05-05 10:56 | 50.19922 | 20.06727 | 4016 ft | 256 kts | 86° |
| 2026-05-05 10:56 | 50.20107 | 20.09521 | 4009 ft | 257 kts | 86° |
| 2026-05-05 10:56 | 50.20292 | 20.12320 | 4007 ft | 258 kts | 86° |
| 2026-05-05 10:56 | 50.20478 | 20.15121 | 4003 ft | 258 kts | 85° |
| 2026-05-05 10:57 | 50.20638 | 20.17876 | 3990 ft | 256 kts | 93° |
| 2026-05-05 10:57 | 50.20122 | 20.20451 | 3974 ft | 236 kts | 130° |
| 2026-05-05 10:57 | 50.18876 | 20.21790 | 3978 ft | 213 kts | 169° |
| 2026-05-05 10:57 | 50.17427 | 20.21463 | 4004 ft | 211 kts | 211° |
| 2026-05-05 10:58 | 50.16433 | 20.19764 | 4027 ft | 215 kts | 233° |
| 2026-05-05 10:58 | 50.15618 | 20.17828 | 4010 ft | 216 kts | 233° |
| 2026-05-05 10:58 | 50.14782 | 20.15862 | 4004 ft | 215 kts | 233° |
| 2026-05-05 10:58 | 50.13947 | 20.13903 | 4001 ft | 216 kts | 234° |
| 2026-05-05 10:59 | 50.13124 | 20.11912 | 4001 ft | 215 kts | 234° |
| 2026-05-05 10:59 | 50.12332 | 20.09997 | 4043 ft | 200 kts | 234° |
| 2026-05-05 10:59 | 50.11848 | 20.08083 | 3982 ft | 186 kts | 253° |
| 2026-05-05 10:59 | 50.11581 | 20.06149 | 3993 ft | 183 kts | 253° |
| 2026-05-05 11:00 | 50.11311 | 20.04193 | 4003 ft | 185 kts | 253° |
| 2026-05-05 11:00 | 50.11042 | 20.02240 | 3950 ft | 190 kts | 253° |
| 2026-05-05 11:00 | 50.10760 | 20.00197 | 3534 ft | 194 kts | 253° |
| 2026-05-05 11:00 | 50.10475 | 19.98121 | 3194 ft | 191 kts | 253° |
| 2026-05-05 11:01 | 50.10200 | 19.96114 | 2910 ft | 185 kts | 254° |
| 2026-05-05 11:01 | 50.09950 | 19.94280 | 2704 ft | 168 kts | 253° |
| 2026-05-05 11:01 | 50.09721 | 19.92597 | 2412 ft | 151 kts | 253° |
| 2026-05-05 11:01 | 50.09508 | 19.91043 | 2193 ft | 139 kts | 252° |
| 2026-05-05 11:02 | 50.09316 | 19.89626 | 2021 ft | 122 kts | 253° |
| 2026-05-05 11:02 | 50.09132 | 19.88298 | 1842 ft | 136 kts | 252° |
| 2026-05-05 11:02 | 50.08921 | 19.86885 | 1852 ft | 137 kts | 251° |
| 2026-05-05 11:02 | 50.08735 | 19.85432 | 1671 ft | 129 kts | 255° |
| 2026-05-05 11:03 | 50.08543 | 19.84077 | 1386 ft | 128 kts | 255° |
| 2026-05-05 11:03 | 50.08361 | 19.82729 | 1200 ft | 124 kts | 255° |
| 2026-05-05 11:03 | 50.08164 | 19.81339 | 1022 ft | 136 kts | 255° |
| 2026-05-05 11:03 | 50.07968 | 19.79918 | 853 ft | 133 kts | 256° |
| 2026-05-05 11:04 | 50.07794 | 19.78647 | 803 ft | 97 kts | 261° |
| 2026-05-05 11:04 | 50.07688 | 19.77876 | 803 ft | 65 kts | 257° |
| 2026-05-05 11:04 | 50.07608 | 19.77300 | 803 ft | 40 kts | 258° |
| 2026-05-05 11:04 | 50.07561 | 19.76964 | 803 ft | 15 kts | 255° |
| 2026-05-05 11:05 | 50.07498 | 19.76851 | 803 ft | 14 kts | 180° |
| 2026-05-05 11:05 | 50.07396 | 19.76884 | 803 ft | 15 kts | 160° |
| 2026-05-05 11:05 | 50.07338 | 19.76912 | 803 ft | 0 kts | 164° |
| 2026-05-05 11:05 | 50.07333 | 19.76914 | 803 ft | 1 kts | 165° |
| 2026-05-05 11:06 | 50.07313 | 19.76928 | 802 ft | 5 kts | 122° |
| 2026-05-05 11:06 | 50.07319 | 19.77039 | 802 ft | 12 kts | 81° |
| 2026-05-05 11:06 | 50.07338 | 19.77188 | 803 ft | 15 kts | 80° |
| 2026-05-05 11:06 | 50.07363 | 19.77361 | 803 ft | 16 kts | 81° |
| 2026-05-05 11:07 | 50.07387 | 19.77540 | 802 ft | 17 kts | 75° |
| 2026-05-05 11:07 | 50.07416 | 19.77733 | 802 ft | 18 kts | 77° |
| 2026-05-05 11:07 | 50.07444 | 19.77941 | 802 ft | 20 kts | 79° |
| 2026-05-05 11:07 | 50.07475 | 19.78161 | 802 ft | 21 kts | 77° |
| 2026-05-05 11:08 | 50.07507 | 19.78385 | 802 ft | 21 kts | 80° |
| 2026-05-05 11:08 | 50.07538 | 19.78611 | 802 ft | 21 kts | 78° |
| 2026-05-05 11:08 | 50.07572 | 19.78845 | 802 ft | 22 kts | 79° |
| 2026-05-05 11:08 | 50.07606 | 19.79070 | 802 ft | 21 kts | 55° |
| 2026-05-05 11:09 | 50.07624 | 19.79231 | 802 ft | 16 kts | 83° |
| 2026-05-05 11:09 | 50.07653 | 19.79423 | 803 ft | 20 kts | 79° |
| 2026-05-05 11:09 | 50.07672 | 19.79588 | 803 ft | 16 kts | 79° |
| 2026-05-05 11:09 | 50.07702 | 19.79789 | 802 ft | 21 kts | 79° |
| 2026-05-05 11:10 | 50.07717 | 19.79941 | 802 ft | 11 kts | 108° |
| 2026-05-05 11:10 | 50.07650 | 19.79959 | 802 ft | 11 kts | 204° |
| 2026-05-05 11:10 | 50.07574 | 19.79914 | 802 ft | 11 kts | 182° |
| 2026-05-05 11:10 | 50.07494 | 19.79936 | 802 ft | 11 kts | 168° |
| 2026-05-05 11:11 | 50.07413 | 19.79972 | 802 ft | 12 kts | 156° |
| 2026-05-05 11:11 | 50.07397 | 19.80051 | 802 ft | 8 kts | 65° |
| 2026-05-05 11:11 | 50.07416 | 19.80137 | 802 ft | 9 kts | 76° |
| 2026-05-05 11:11 | 50.07430 | 19.80244 | 802 ft | 10 kts | 81° |
| 2026-05-05 11:12 | 50.07387 | 19.80313 | 802 ft | 10 kts | 168° |
| 2026-05-05 11:12 | 50.07362 | 19.80321 | 802 ft | 1 kts | 168° |
| 2026-05-05 11:12 | 50.07359 | 19.80322 | 802 ft | 0 kts | 168° |